シドニー の空港の天気 - METARとTAF

シドニー国際空港 ( YSSY / SYD ) - オーストラリア ニューサウスウェールズ州、Mascot
飛行場実況気象(Metar)
観測時間10/16 18:30 AEDT (10/16 07:30 UTC)
風向・風速西北西 2m/s
視程10km以上
天気現象
なし
気温25℃
湿度34%
気圧1008hPa
METARYSSY 160730Z 29003KT CAVOK 25/08 Q1008 NOSIG
過去の天気等 Google飛行場航空写真 Wunderground天気予報

過去48時間のMETAR

飛行場予報(TAF)
発表時間: 10/16 18:05 AEDT (10/16 07:05 UTC)
予報対象時間: 16日18時 AEDT ~ 17日23時 AEDT
風向・風速西 4m/s
視程10km以上
なし
16日21時 AEDT から
風向・風速北東 4m/s
視程10km以上
天気現象弱いしゅう雨
少しの雲 雲底高度 370m
全天の8割程度の雲 雲底高度 3050m
17日3時 AEDT から
風向・風速南 4m/s
視程10km以上
天気現象弱い雨
全天の4割程度の雲 雲底高度 240m
全天の4割程度の雲 雲底高度 610m
17日10時 AEDT から
風向・風速西 7m/s
視程10km以上
なし
17日14時 AEDT から
風向・風速西 11m/s 瞬間風速 18m/s
視程10km以上
なし
17日18時 AEDT から
風向・風速西 9m/s
視程10km以上
なし
TAF AMD YSSY 160705Z 1607/1712 28008KT CAVOK
FM161000 04008KT 9999 -SHRA FEW012 BKN100
FM161600 18008KT 9999 -RA SCT008 SCT020
FM162300 27014KT CAVOK
FM170300 27022G35KT CAVOK
FM170700 26018KT CAVOK
PROB30 INTER 1610/1616 VRB25G40KT 3000 TSRA BKN010 SCT060CB